sensor_id;sensor_type;location;lat;lon;timestamp;pressure;altitude;pressure_sealevel;temperature;humidity
51369;BME280;37459;51.416;5.502;2022-08-18T00:01:38;100840.16;;;17.98;100.00
51369;BME280;37459;51.416;5.502;2022-08-18T00:04:06;100847.50;;;17.98;100.00
51369;BME280;37459;51.416;5.502;2022-08-18T00:06:33;100847.44;;;17.93;100.00
51369;BME280;37459;51.416;5.502;2022-08-18T00:09:02;100855.88;;;17.91;100.00
51369;BME280;37459;51.416;5.502;2022-08-18T00:11:32;100848.22;;;17.88;100.00
51369;BME280;37459;51.416;5.502;2022-08-18T00:13:58;100856.66;;;17.86;100.00
51369;BME280;37459;51.416;5.502;2022-08-18T00:16:25;100860.16;;;17.82;100.00
51369;BME280;37459;51.416;5.502;2022-08-18T00:18:52;100859.28;;;17.76;100.00
51369;BME280;37459;51.416;5.502;2022-08-18T00:21:19;100861.94;;;17.71;100.00
51369;BME280;37459;51.416;5.502;2022-08-18T00:23:45;100853.19;;;17.69;100.00
51369;BME280;37459;51.416;5.502;2022-08-18T00:26:12;100850.75;;;17.68;100.00
51369;BME280;37459;51.416;5.502;2022-08-18T00:28:38;100860.81;;;17.67;100.00
51369;BME280;37459;51.416;5.502;2022-08-18T00:31:05;100861.06;;;17.65;100.00
51369;BME280;37459;51.416;5.502;2022-08-18T00:33:31;100867.03;;;17.62;100.00
51369;BME280;37459;51.416;5.502;2022-08-18T00:35:59;100860.19;;;17.60;100.00
51369;BME280;37459;51.416;5.502;2022-08-18T00:38:26;100859.63;;;17.58;100.00
51369;BME280;37459;51.416;5.502;2022-08-18T00:40:54;100872.69;;;17.56;100.00
51369;BME280;37459;51.416;5.502;2022-08-18T00:43:25;100873.78;;;17.55;100.00
51369;BME280;37459;51.416;5.502;2022-08-18T00:45:56;100884.41;;;17.56;100.00
51369;BME280;37459;51.416;5.502;2022-08-18T00:48:22;100887.97;;;17.57;100.00
51369;BME280;37459;51.416;5.502;2022-08-18T00:50:53;100882.53;;;17.57;100.00
51369;BME280;37459;51.416;5.502;2022-08-18T00:53:24;100875.47;;;17.61;100.00
51369;BME280;37459;51.416;5.502;2022-08-18T00:55:55;100880.66;;;17.62;100.00
51369;BME280;37459;51.416;5.502;2022-08-18T00:58:26;100872.81;;;17.66;100.00
51369;BME280;37459;51.416;5.502;2022-08-18T01:00:54;100872.81;;;17.66;100.00
51369;BME280;37459;51.416;5.502;2022-08-18T01:03:22;100873.38;;;17.68;100.00
51369;BME280;37459;51.416;5.502;2022-08-18T01:05:53;100871.22;;;17.70;100.00
51369;BME280;37459;51.416;5.502;2022-08-18T01:08:22;100860.31;;;17.70;100.00
51369;BME280;37459;51.416;5.502;2022-08-18T01:10:50;100867.38;;;17.71;100.00
51369;BME280;37459;51.416;5.502;2022-08-18T01:13:18;100864.97;;;17.75;100.00
51369;BME280;37459;51.416;5.502;2022-08-18T01:15:44;100864.44;;;17.78;100.00
51369;BME280;37459;51.416;5.502;2022-08-18T01:18:13;100869.66;;;17.79;100.00
51369;BME280;37459;51.416;5.502;2022-08-18T01:21:03;100869.16;;;17.82;100.00
51369;BME280;37459;51.416;5.502;2022-08-18T01:23:53;100865.38;;;17.83;100.00
51369;BME280;37459;51.416;5.502;2022-08-18T01:26:21;100858.81;;;17.84;100.00
51369;BME280;37459;51.416;5.502;2022-08-18T01:28:48;100858.31;;;17.88;100.00
51369;BME280;37459;51.416;5.502;2022-08-18T01:31:32;100848.47;;;17.86;100.00
51369;BME280;37459;51.416;5.502;2022-08-18T01:34:02;100855.88;;;17.91;100.00
51369;BME280;37459;51.416;5.502;2022-08-18T01:36:30;100865.97;;;17.91;100.00
51369;BME280;37459;51.416;5.502;2022-08-18T01:39:00;100857.22;;;17.89;100.00
51369;BME280;37459;51.416;5.502;2022-08-18T01:41:26;100860.22;;;17.87;100.00
51369;BME280;37459;51.416;5.502;2022-08-18T01:43:53;100857.50;;;17.87;100.00
51369;BME280;37459;51.416;5.502;2022-08-18T01:46:20;100858.56;;;17.86;100.00
51369;BME280;37459;51.416;5.502;2022-08-18T01:48:47;100863.22;;;17.85;100.00
51369;BME280;37459;51.416;5.502;2022-08-18T01:51:14;100852.31;;;17.85;100.00
51369;BME280;37459;51.416;5.502;2022-08-18T01:53:42;100849.81;;;17.84;100.00
51369;BME280;37459;51.416;5.502;2022-08-18T01:56:10;100833.34;;;17.74;100.00
51369;BME280;37459;51.416;5.502;2022-08-18T01:58:38;100853.38;;;17.84;100.00
51369;BME280;37459;51.416;5.502;2022-08-18T02:01:05;100852.81;;;17.82;100.00
51369;BME280;37459;51.416;5.502;2022-08-18T02:03:34;100854.72;;;17.82;100.00
51369;BME280;37459;51.416;5.502;2022-08-18T02:06:04;100854.97;;;17.80;100.00
51369;BME280;37459;51.416;5.502;2022-08-18T02:08:31;100862.03;;;17.81;100.00
51369;BME280;37459;51.416;5.502;2022-08-18T02:10:58;100855.78;;;17.81;100.00
51369;BME280;37459;51.416;5.502;2022-08-18T02:13:26;100865.03;;;17.80;100.00
51369;BME280;37459;51.416;5.502;2022-08-18T02:15:52;100859.56;;;17.80;100.00
51369;BME280;37459;51.416;5.502;2022-08-18T02:18:20;100856.56;;;17.76;100.00
51369;BME280;37459;51.416;5.502;2022-08-18T02:20:47;100859.28;;;17.76;100.00
51369;BME280;37459;51.416;5.502;2022-08-18T02:23:14;100875.63;;;17.76;100.00
51369;BME280;37459;51.416;5.502;2022-08-18T02:25:42;100869.34;;;17.76;100.00
51369;BME280;37459;51.416;5.502;2022-08-18T02:28:09;100867.97;;;17.73;100.00
51369;BME280;37459;51.416;5.502;2022-08-18T02:30:37;100872.84;;;17.71;100.00
51369;BME280;37459;51.416;5.502;2022-08-18T02:33:04;100876.66;;;17.70;100.00
51369;BME280;37459;51.416;5.502;2022-08-18T02:35:31;100865.75;;;17.70;100.00
51369;BME280;37459;51.416;5.502;2022-08-18T02:37:59;100885.41;;;17.72;100.00
51369;BME280;37459;51.416;5.502;2022-08-18T02:40:26;100882.69;;;17.72;100.00
51369;BME280;37459;51.416;5.502;2022-08-18T02:42:54;100885.97;;;17.74;100.00
51369;BME280;37459;51.416;5.502;2022-08-18T02:45:21;100887.03;;;17.73;100.00
51369;BME280;37459;51.416;5.502;2022-08-18T02:47:52;100889.19;;;17.71;100.00
51369;BME280;37459;51.416;5.502;2022-08-18T02:50:18;100887.56;;;17.70;100.00
51369;BME280;37459;51.416;5.502;2022-08-18T02:52:45;100885.09;;;17.69;100.00
51369;BME280;37459;51.416;5.502;2022-08-18T02:55:12;100882.13;;;17.70;100.00
51369;BME280;37459;51.416;5.502;2022-08-18T02:57:41;100870.56;;;17.63;100.00
51369;BME280;37459;51.416;5.502;2022-08-18T03:00:08;100878.56;;;17.70;100.00
51369;BME280;37459;51.416;5.502;2022-08-18T03:02:36;100885.66;;;17.71;100.00
51369;BME280;37459;51.416;5.502;2022-08-18T03:05:05;100889.19;;;17.71;100.00
51369;BME280;37459;51.416;5.502;2022-08-18T03:07:32;100897.69;;;17.75;100.00
51369;BME280;37459;51.416;5.502;2022-08-18T03:09:58;100896.56;;;17.71;100.00
51369;BME280;37459;51.416;5.502;2022-08-18T03:12:25;100892.19;;;17.70;100.00
51369;BME280;37459;51.416;5.502;2022-08-18T03:14:51;100888.91;;;17.68;100.00
51369;BME280;37459;51.416;5.502;2022-08-18T03:17:18;100888.91;;;17.68;100.00
51369;BME280;37459;51.416;5.502;2022-08-18T03:19:44;100895.19;;;17.68;100.00
51369;BME280;37459;51.416;5.502;2022-08-18T03:22:12;100887.25;;;17.66;100.00
51369;BME280;37459;51.416;5.502;2022-08-18T03:24:39;100895.66;;;17.65;100.00
51369;BME280;37459;51.416;5.502;2022-08-18T03:27:06;100894.03;;;17.64;100.00
51369;BME280;37459;51.416;5.502;2022-08-18T03:29:33;100891.56;;;17.62;100.00
51369;BME280;37459;51.416;5.502;2022-08-18T03:32:01;100885.81;;;17.59;100.00
51369;BME280;37459;51.416;5.502;2022-08-18T03:34:29;100882.00;;;17.60;100.00
51369;BME280;37459;51.416;5.502;2022-08-18T03:36:56;100875.16;;;17.57;100.00
51369;BME280;37459;51.416;5.502;2022-08-18T03:39:24;100884.41;;;17.56;100.00
51369;BME280;37459;51.416;5.502;2022-08-18T03:41:52;100884.69;;;17.55;100.00
51369;BME280;37459;51.416;5.502;2022-08-18T03:44:20;100868.53;;;17.48;100.00
51369;BME280;37459;51.416;5.502;2022-08-18T03:46:50;100877.75;;;17.47;100.00
51369;BME280;37459;51.416;5.502;2022-08-18T03:49:17;100882.06;;;17.43;100.00
51369;BME280;37459;51.416;5.502;2022-08-18T03:51:45;100885.06;;;17.41;100.00
51369;BME280;37459;51.416;5.502;2022-08-18T03:54:13;100873.84;;;17.38;100.00
51369;BME280;37459;51.416;5.502;2022-08-18T03:56:44;100877.06;;;17.35;100.00
51369;BME280;37459;51.416;5.502;2022-08-18T03:59:13;100872.94;;;17.32;100.00
51369;BME280;37459;51.416;5.502;2022-08-18T04:01:41;100876.44;;;17.28;100.00
51369;BME280;37459;51.416;5.502;2022-08-18T04:04:09;100873.44;;;17.24;100.00
51369;BME280;37459;51.416;5.502;2022-08-18T04:06:39;100873.91;;;17.21;100.00
51369;BME280;37459;51.416;5.502;2022-08-18T04:09:08;100850.53;;;17.03;100.00
51369;BME280;37459;51.416;5.502;2022-08-18T04:11:36;100870.03;;;17.17;100.00
51369;BME280;37459;51.416;5.502;2022-08-18T04:14:04;100873.34;;;17.19;100.00
51369;BME280;37459;51.416;5.502;2022-08-18T04:16:32;100879.31;;;17.16;100.00
51369;BME280;37459;51.416;5.502;2022-08-18T04:18:59;100875.44;;;17.12;100.00
51369;BME280;37459;51.416;5.502;2022-08-18T04:21:28;100875.19;;;17.13;100.00
51369;BME280;37459;51.416;5.502;2022-08-18T04:23:57;100878.75;;;17.14;100.00
51369;BME280;37459;51.416;5.502;2022-08-18T04:26:30;100881.47;;;17.14;100.00
51369;BME280;37459;51.416;5.502;2022-08-18T04:28:57;100878.75;;;17.14;100.00
51369;BME280;37459;51.416;5.502;2022-08-18T04:31:27;100879.56;;;17.14;100.00
51369;BME280;37459;51.416;5.502;2022-08-18T04:33:54;100882.03;;;17.16;100.00
51369;BME280;37459;51.416;5.502;2022-08-18T04:36:21;100884.75;;;17.16;100.00
51369;BME280;37459;51.416;5.502;2022-08-18T04:38:48;100897.84;;;17.19;100.00
51369;BME280;37459;51.416;5.502;2022-08-18T04:41:15;100888.63;;;17.20;100.00
51369;BME280;37459;51.416;5.502;2022-08-18T04:43:41;100886.47;;;17.22;100.00
51369;BME280;37459;51.416;5.502;2022-08-18T04:46:08;100887.28;;;17.22;100.00
51369;BME280;37459;51.416;5.502;2022-08-18T04:48:39;100891.91;;;17.22;100.00
51369;BME280;37459;51.416;5.502;2022-08-18T04:51:09;100904.44;;;17.23;100.00
51369;BME280;37459;51.416;5.502;2022-08-18T04:53:36;100904.97;;;17.20;100.00
51369;BME280;37459;51.416;5.502;2022-08-18T04:56:16;100906.59;;;17.21;100.00
51369;BME280;37459;51.416;5.502;2022-08-18T04:58:46;100915.88;;;17.20;100.00
51369;BME280;37459;51.416;5.502;2022-08-18T05:01:17;100906.03;;;17.19;100.00
51369;BME280;37459;51.416;5.502;2022-08-18T05:03:46;100916.34;;;17.17;100.00
51369;BME280;37459;51.416;5.502;2022-08-18T05:06:13;100924.53;;;17.17;100.00
51369;BME280;37459;51.416;5.502;2022-08-18T05:08:40;100932.44;;;17.18;100.00
51369;BME280;37459;51.416;5.502;2022-08-18T05:11:06;100925.63;;;17.16;100.00
51369;BME280;37459;51.416;5.502;2022-08-18T05:13:33;100924.84;;;17.20;100.00
51369;BME280;37459;51.416;5.502;2022-08-18T05:16:00;100924.03;;;17.20;100.00
51369;BME280;37459;51.416;5.502;2022-08-18T05:18:28;100928.41;;;17.21;100.00
51369;BME280;37459;51.416;5.502;2022-08-18T05:20:56;100920.16;;;17.16;100.00
51369;BME280;37459;51.416;5.502;2022-08-18T05:23:24;100926.25;;;17.23;100.00
51369;BME280;37459;51.416;5.502;2022-08-18T05:25:56;100914.53;;;17.22;100.00
51369;BME280;37459;51.416;5.502;2022-08-18T05:28:23;100923.09;;;17.31;100.00
51369;BME280;37459;51.416;5.502;2022-08-18T05:30:49;100922.91;;;17.38;100.00
51369;BME280;37459;51.416;5.502;2022-08-18T05:33:15;100925.38;;;17.39;100.00
51369;BME280;37459;51.416;5.502;2022-08-18T05:35:45;100928.16;;;17.44;100.00
51369;BME280;37459;51.416;5.502;2022-08-18T05:38:35;100927.13;;;17.51;100.00
51369;BME280;37459;51.416;5.502;2022-08-18T05:41:09;100926.31;;;17.50;100.00
51369;BME280;37459;51.416;5.502;2022-08-18T05:43:37;100929.88;;;17.51;100.00
51369;BME280;37459;51.416;5.502;2022-08-18T05:46:06;100928.94;;;17.67;100.00
51369;BME280;37459;51.416;5.502;2022-08-18T05:48:33;100926.91;;;17.79;100.00
51369;BME280;37459;51.416;5.502;2022-08-18T05:51:07;100936.88;;;17.91;100.00
51369;BME280;37459;51.416;5.502;2022-08-18T05:53:37;100939.69;;;17.96;100.00
51369;BME280;37459;51.416;5.502;2022-08-18T05:56:23;100926.59;;;17.98;100.00
51369;BME280;37459;51.416;5.502;2022-08-18T05:59:09;100934.72;;;17.93;100.00
51369;BME280;37459;51.416;5.502;2022-08-18T06:01:40;100933.78;;;17.82;100.00
51369;BME280;37459;51.416;5.502;2022-08-18T06:04:22;100936.09;;;17.73;100.00
51369;BME280;37459;51.416;5.502;2022-08-18T06:06:52;100945.06;;;17.69;100.00
51369;BME280;37459;51.416;5.502;2022-08-18T06:09:26;100938.47;;;17.64;100.00
51369;BME280;37459;51.416;5.502;2022-08-18T06:11:57;100946.84;;;17.58;100.00
51369;BME280;37459;51.416;5.502;2022-08-18T06:14:30;100937.03;;;17.57;100.00
51369;BME280;37459;51.416;5.502;2022-08-18T06:17:03;100940.00;;;17.55;100.00
51369;BME280;37459;51.416;5.502;2022-08-18T06:19:40;100935.31;;;17.51;100.00
51369;BME280;37459;51.416;5.502;2022-08-18T06:22:16;100944.34;;;17.56;100.00
51369;BME280;37459;51.416;5.502;2022-08-18T06:24:53;100956.16;;;17.62;100.00
51369;BME280;37459;51.416;5.502;2022-08-18T06:27:27;100960.59;;;17.68;100.00
51369;BME280;37459;51.416;5.502;2022-08-18T06:30:04;100962.88;;;17.76;100.00
51369;BME280;37459;51.416;5.502;2022-08-18T06:32:47;100957.72;;;17.80;100.00
51369;BME280;37459;51.416;5.502;2022-08-18T06:35:24;100952.28;;;17.80;100.00
51369;BME280;37459;51.416;5.502;2022-08-18T06:37:59;100956.41;;;17.82;100.00
51369;BME280;37459;51.416;5.502;2022-08-18T06:40:49;100964.84;;;17.81;100.00
51369;BME280;37459;51.416;5.502;2022-08-18T06:43:23;100952.47;;;17.73;100.00
51369;BME280;37459;51.416;5.502;2022-08-18T06:45:50;100953.19;;;17.85;100.00
51369;BME280;37459;51.416;5.502;2022-08-18T06:48:21;100956.53;;;17.93;100.00
51369;BME280;37459;51.416;5.502;2022-08-18T06:50:52;100962.72;;;18.10;100.00
51369;BME280;37459;51.416;5.502;2022-08-18T06:53:21;100952.13;;;18.14;100.00
51369;BME280;37459;51.416;5.502;2022-08-18T06:55:49;100969.91;;;18.21;100.00
51369;BME280;37459;51.416;5.502;2022-08-18T06:58:23;100967.25;;;18.26;100.00
51369;BME280;37459;51.416;5.502;2022-08-18T07:00:58;100971.69;;;18.33;100.00
51369;BME280;37459;51.416;5.502;2022-08-18T07:03:41;100974.97;;;18.35;100.00
51369;BME280;37459;51.416;5.502;2022-08-18T07:06:10;100977.63;;;18.30;100.00
51369;BME280;37459;51.416;5.502;2022-08-18T07:08:50;100976.28;;;18.32;100.00
51369;BME280;37459;51.416;5.502;2022-08-18T07:11:22;100982.06;;;18.36;100.00
51369;BME280;37459;51.416;5.502;2022-08-18T07:13:50;100985.41;;;18.43;100.00
51369;BME280;37459;51.416;5.502;2022-08-18T07:16:22;100980.00;;;18.48;100.00
51369;BME280;37459;51.416;5.502;2022-08-18T07:18:49;100985.25;;;18.55;100.00
51369;BME280;37459;51.416;5.502;2022-08-18T07:21:23;100984.22;;;18.61;100.00
51369;BME280;37459;51.416;5.502;2022-08-18T07:23:58;100988.81;;;18.60;100.00
51369;BME280;37459;51.416;5.502;2022-08-18T07:26:26;100981.19;;;18.62;100.00
51369;BME280;37459;51.416;5.502;2022-08-18T07:28:53;100981.19;;;18.62;100.00
51369;BME280;37459;51.416;5.502;2022-08-18T07:31:26;100984.00;;;18.67;100.00
51369;BME280;37459;51.416;5.502;2022-08-18T07:33:58;100980.72;;;18.71;100.00
51369;BME280;37459;51.416;5.502;2022-08-18T07:36:29;100983.22;;;18.77;100.00
51369;BME280;37459;51.416;5.502;2022-08-18T07:39:02;100982.22;;;18.83;100.00
51369;BME280;37459;51.416;5.502;2022-08-18T07:41:38;100981.69;;;18.86;100.00
51369;BME280;37459;51.416;5.502;2022-08-18T07:44:14;100982.00;;;18.90;100.00
51369;BME280;37459;51.416;5.502;2022-08-18T07:46:49;100988.66;;;19.04;100.00
51369;BME280;37459;51.416;5.502;2022-08-18T07:49:19;100987.06;;;19.14;100.00
51369;BME280;37459;51.416;5.502;2022-08-18T07:51:48;100987.63;;;19.11;100.00
51369;BME280;37459;51.416;5.502;2022-08-18T07:54:26;100981.28;;;19.05;100.00
51369;BME280;37459;51.416;5.502;2022-08-18T07:57:01;100977.44;;;19.06;100.00
51369;BME280;37459;51.416;5.502;2022-08-18T07:59:35;100971.47;;;19.09;100.00
51369;BME280;37459;51.416;5.502;2022-08-18T08:02:18;100973.44;;;19.19;100.00
51369;BME280;37459;51.416;5.502;2022-08-18T08:04:55;100980.06;;;19.33;100.00
51369;BME280;37459;51.416;5.502;2022-08-18T08:07:28;100981.78;;;19.44;100.00
51369;BME280;37459;51.416;5.502;2022-08-18T08:10:06;100979.06;;;19.49;100.00
51369;BME280;37459;51.416;5.502;2022-08-18T08:12:42;100985.69;;;19.59;100.00
51369;BME280;37459;51.416;5.502;2022-08-18T08:15:15;100984.06;;;19.63;100.00
51369;BME280;37459;51.416;5.502;2022-08-18T08:17:49;100982.69;;;19.65;100.00
51369;BME280;37459;51.416;5.502;2022-08-18T08:20:24;100992.25;;;19.63;100.00
51369;BME280;37459;51.416;5.502;2022-08-18T08:23:00;100994.19;;;19.67;100.00
51369;BME280;37459;51.416;5.502;2022-08-18T08:25:35;100996.97;;;19.73;100.00
51369;BME280;37459;51.416;5.502;2022-08-18T08:28:16;100991.75;;;19.71;100.00
51369;BME280;37459;51.416;5.502;2022-08-18T08:30:54;101001.88;;;19.70;100.00
51369;BME280;37459;51.416;5.502;2022-08-18T08:33:28;100993.09;;;19.68;100.00
51369;BME280;37459;51.416;5.502;2022-08-18T08:36:01;100993.88;;;19.64;100.00
51369;BME280;37459;51.416;5.502;2022-08-18T08:38:39;101003.44;;;19.61;100.00
51369;BME280;37459;51.416;5.502;2022-08-18T08:41:09;100999.84;;;19.56;100.00
51369;BME280;37459;51.416;5.502;2022-08-18T08:43:41;100994.78;;;19.75;100.00
51369;BME280;37459;51.416;5.502;2022-08-18T08:46:12;101003.84;;;19.90;100.00
51369;BME280;37459;51.416;5.502;2022-08-18T08:48:46;100995.41;;;19.97;99.66
51369;BME280;37459;51.416;5.502;2022-08-18T08:51:28;100990.19;;;19.90;100.00
51369;BME280;37459;51.416;5.502;2022-08-18T08:54:02;101006.34;;;19.92;98.97
51369;BME280;37459;51.416;5.502;2022-08-18T08:56:35;101014.84;;;19.96;98.88
51369;BME280;37459;51.416;5.502;2022-08-18T08:59:10;101004.44;;;19.98;99.80
51369;BME280;37459;51.416;5.502;2022-08-18T09:01:44;101006.38;;;20.02;98.42
51369;BME280;37459;51.416;5.502;2022-08-18T09:04:20;101003.91;;;20.01;99.23
51369;BME280;37459;51.416;5.502;2022-08-18T09:06:56;101014.91;;;20.26;96.88
51369;BME280;37459;51.416;5.502;2022-08-18T09:09:43;101011.63;;;20.45;94.68
51369;BME280;37459;51.416;5.502;2022-08-18T09:12:22;101007.31;;;20.59;93.59
51369;BME280;37459;51.416;5.502;2022-08-18T09:15:48;101014.41;;;21.06;91.88
51369;BME280;37459;51.416;5.502;2022-08-18T09:18:41;101011.91;;;21.30;90.19
51369;BME280;37459;51.416;5.502;2022-08-18T09:21:23;101016.03;;;21.28;92.28
51369;BME280;37459;51.416;5.502;2022-08-18T09:24:03;101023.44;;;21.07;89.21
51369;BME280;37459;51.416;5.502;2022-08-18T09:26:49;101013.88;;;20.84;90.58
51369;BME280;37459;51.416;5.502;2022-08-18T09:29:21;101013.31;;;20.66;91.39
51369;BME280;37459;51.416;5.502;2022-08-18T09:35:00;100987.56;;;20.37;94.79
51369;BME280;37459;51.416;5.502;2022-08-18T09:37:42;100999.59;;;20.30;95.58
51369;BME280;37459;51.416;5.502;2022-08-18T09:40:14;101006.97;;;20.25;96.57
51369;BME280;37459;51.416;5.502;2022-08-18T09:43:07;101003.41;;;20.29;97.52
51369;BME280;37459;51.416;5.502;2022-08-18T09:45:54;100998.50;;;20.47;96.48
51369;BME280;37459;51.416;5.502;2022-08-18T09:48:25;100994.16;;;20.56;94.53
51369;BME280;37459;51.416;5.502;2022-08-18T09:50:57;100987.03;;;20.70;95.11
51369;BME280;37459;51.416;5.502;2022-08-18T09:53:35;100987.03;;;20.86;93.28
51369;BME280;37459;51.416;5.502;2022-08-18T09:56:03;100994.41;;;21.06;91.79
51369;BME280;37459;51.416;5.502;2022-08-18T09:58:52;101001.47;;;21.27;88.88
51369;BME280;37459;51.416;5.502;2022-08-18T10:04:27;101000.56;;;21.68;84.49
51369;BME280;37459;51.416;5.502;2022-08-18T10:07:13;100993.38;;;21.77;87.06
51369;BME280;37459;51.416;5.502;2022-08-18T10:09:47;100995.88;;;21.73;84.33
51369;BME280;37459;51.416;5.502;2022-08-18T10:12:40;100990.47;;;21.58;84.19
51369;BME280;37459;51.416;5.502;2022-08-18T10:15:30;100997.09;;;21.42;85.73
51369;BME280;37459;51.416;5.502;2022-08-18T10:18:03;100990.50;;;21.27;86.94
51369;BME280;37459;51.416;5.502;2022-08-18T10:20:45;100993.28;;;21.22;87.57
51369;BME280;37459;51.416;5.502;2022-08-18T10:30:03;100981.50;;;21.22;89.65
51369;BME280;37459;51.416;5.502;2022-08-18T10:32:42;100976.28;;;21.25;85.66
51369;BME280;37459;51.416;5.502;2022-08-18T10:38:13;100981.34;;;21.73;82.73
51369;BME280;37459;51.416;5.502;2022-08-18T10:40:41;100976.91;;;21.82;83.95
51369;BME280;37459;51.416;5.502;2022-08-18T10:43:10;100975.47;;;21.90;83.84
51369;BME280;37459;51.416;5.502;2022-08-18T10:45:46;100982.09;;;21.84;80.28
51369;BME280;37459;51.416;5.502;2022-08-18T10:48:18;100976.59;;;21.84;80.22
51369;BME280;37459;51.416;5.502;2022-08-18T10:50:50;100982.94;;;21.84;79.76
51369;BME280;37459;51.416;5.502;2022-08-18T10:53:22;100982.94;;;21.79;79.19
51369;BME280;37459;51.416;5.502;2022-08-18T10:55:57;100986.00;;;21.72;81.08
51369;BME280;37459;51.416;5.502;2022-08-18T10:59:00;100989.59;;;21.68;81.41
51369;BME280;37459;51.416;5.502;2022-08-18T11:01:46;100995.63;;;21.70;81.60
51369;BME280;37459;51.416;5.502;2022-08-18T11:04:29;100990.94;;;21.76;81.24
51369;BME280;37459;51.416;5.502;2022-08-18T11:07:05;100976.38;;;21.75;81.49
51369;BME280;37459;51.416;5.502;2022-08-18T11:09:34;100967.09;;;21.66;81.00
51369;BME280;37459;51.416;5.502;2022-08-18T11:12:02;100974.22;;;21.72;80.56
51369;BME280;37459;51.416;5.502;2022-08-18T11:14:53;100980.28;;;22.19;79.53
51369;BME280;37459;51.416;5.502;2022-08-18T11:17:32;100964.56;;;22.93;75.94
51369;BME280;37459;51.416;5.502;2022-08-18T11:20:01;100956.84;;;23.67;75.00
51369;BME280;37459;51.416;5.502;2022-08-18T11:22:34;100956.59;;;24.26;72.52
51369;BME280;37459;51.416;5.502;2022-08-18T11:25:03;100943.50;;;24.69;69.11
51369;BME280;37459;51.416;5.502;2022-08-18T11:27:33;100955.50;;;25.06;68.80
51369;BME280;37459;51.416;5.502;2022-08-18T11:30:02;100945.03;;;25.36;66.61
51369;BME280;37459;51.416;5.502;2022-08-18T11:32:32;100947.25;;;25.61;67.64
51369;BME280;37459;51.416;5.502;2022-08-18T11:35:02;100942.97;;;25.41;67.12
51369;BME280;37459;51.416;5.502;2022-08-18T11:37:34;100934.81;;;25.23;65.57
51369;BME280;37459;51.416;5.502;2022-08-18T11:40:06;100933.56;;;25.15;67.84
51369;BME280;37459;51.416;5.502;2022-08-18T11:42:39;100930.19;;;25.04;68.02
51369;BME280;37459;51.416;5.502;2022-08-18T11:45:23;100937.00;;;25.07;66.67
51369;BME280;37459;51.416;5.502;2022-08-18T11:48:10;100929.63;;;24.74;66.57
51369;BME280;37459;51.416;5.502;2022-08-18T11:50:45;100922.91;;;24.48;67.67
51369;BME280;37459;51.416;5.502;2022-08-18T11:53:14;100923.19;;;24.13;67.74
51369;BME280;37459;51.416;5.502;2022-08-18T11:55:43;100913.81;;;23.95;70.57
51369;BME280;37459;51.416;5.502;2022-08-18T11:58:09;100907.06;;;23.88;69.96
51369;BME280;37459;51.416;5.502;2022-08-18T12:00:51;100919.56;;;23.80;69.67
51369;BME280;37459;51.416;5.502;2022-08-18T12:03:25;100911.13;;;23.71;69.91
51369;BME280;37459;51.416;5.502;2022-08-18T12:05:55;100924.25;;;23.80;70.57
51369;BME280;37459;51.416;5.502;2022-08-18T12:08:29;100925.50;;;23.87;71.34
51369;BME280;37459;51.416;5.502;2022-08-18T12:11:03;100932.16;;;23.86;69.48
51369;BME280;37459;51.416;5.502;2022-08-18T12:13:30;100927.59;;;23.76;67.65
51369;BME280;37459;51.416;5.502;2022-08-18T12:16:08;100936.22;;;23.89;71.38
51369;BME280;37459;51.416;5.502;2022-08-18T12:18:36;100929.97;;;23.83;69.53
51369;BME280;37459;51.416;5.502;2022-08-18T12:21:03;100936.53;;;23.87;69.16
51369;BME280;37459;51.416;5.502;2022-08-18T12:23:30;100912.72;;;23.96;70.53
51369;BME280;37459;51.416;5.502;2022-08-18T12:25:58;100924.19;;;24.04;69.19
51369;BME280;37459;51.416;5.502;2022-08-18T12:28:25;100920.13;;;24.15;66.39
51369;BME280;37459;51.416;5.502;2022-08-18T12:30:52;100923.94;;;24.19;67.87
51369;BME280;37459;51.416;5.502;2022-08-18T12:33:18;100929.88;;;24.26;66.78
51369;BME280;37459;51.416;5.502;2022-08-18T12:35:46;100926.91;;;24.23;66.46
51369;BME280;37459;51.416;5.502;2022-08-18T12:38:13;100920.44;;;24.13;67.49
51369;BME280;37459;51.416;5.502;2022-08-18T12:40:42;100926.69;;;24.00;68.31
51369;BME280;37459;51.416;5.502;2022-08-18T12:43:09;100927.16;;;23.88;67.25
51369;BME280;37459;51.416;5.502;2022-08-18T12:45:35;100938.75;;;23.85;68.17
51369;BME280;37459;51.416;5.502;2022-08-18T12:48:03;100928.72;;;23.94;69.14
51369;BME280;37459;51.416;5.502;2022-08-18T12:50:29;100935.84;;;23.95;69.57
51369;BME280;37459;51.416;5.502;2022-08-18T12:52:57;100938.69;;;23.90;66.26
51369;BME280;37459;51.416;5.502;2022-08-18T12:55:23;100941.88;;;23.78;66.47
51369;BME280;37459;51.416;5.502;2022-08-18T12:57:50;100950.44;;;23.77;67.21
51369;BME280;37459;51.416;5.502;2022-08-18T13:00:17;100955.09;;;23.76;67.58
51369;BME280;37459;51.416;5.502;2022-08-18T13:02:45;100956.97;;;23.81;69.96
51369;BME280;37459;51.416;5.502;2022-08-18T13:05:11;100960.25;;;23.83;69.95
51369;BME280;37459;51.416;5.502;2022-08-18T13:07:38;100963.31;;;23.82;67.19
51369;BME280;37459;51.416;5.502;2022-08-18T13:10:06;100970.44;;;23.83;66.39
51369;BME280;37459;51.416;5.502;2022-08-18T13:12:33;100971.06;;;23.74;66.11
51369;BME280;37459;51.416;5.502;2022-08-18T13:14:59;100969.53;;;23.68;67.10
51369;BME280;37459;51.416;5.502;2022-08-18T13:17:26;100973.38;;;23.67;66.47
51369;BME280;37459;51.416;5.502;2022-08-18T13:19:52;100976.41;;;23.66;69.05
51369;BME280;37459;51.416;5.502;2022-08-18T13:22:19;100971.25;;;23.59;69.90